Time;durP1;ratioP1;P1;durP2;ratioP2;P2;SDS_P1;SDS_P2;PMS_P1;PMS_P2;Temp;Humidity;BMP_temperature;BMP_pressure;BME280_temperature;BME280_humidity;BME280_pressure;Samples;Min_cycle;Max_cycle;Signal;HPM_P1;HPM_P2
2022/11/12 00:01:59;;;;;;;0.00;0.00;;;4.80;99.90;;;;;;4991784;28;20017;-76
2022/11/12 00:04:25;;;;;;;0.10;0.10;;;4.80;99.90;;;;;;4991552;28;20085;-77
2022/11/12 00:06:51;;;;;;;0.57;0.57;;;4.80;99.90;;;;;;4992615;28;20034;-76
2022/11/12 00:09:20;;;;;;;4.38;4.22;;;4.80;99.90;;;;;;4991073;28;20054;-77
2022/11/12 00:11:50;;;;;;;0.10;0.10;;;4.80;99.90;;;;;;4989705;28;20026;-76
2022/11/12 00:14:16;;;;;;;0.05;0.05;;;4.80;99.90;;;;;;4991371;28;20090;-77
2022/11/12 00:16:43;;;;;;;0.90;0.90;;;4.80;99.90;;;;;;4990140;28;20006;-76
2022/11/12 00:19:14;;;;;;;0.00;0.00;;;4.80;99.90;;;;;;4991341;28;20031;-76
2022/11/12 00:21:40;;;;;;;0.63;0.63;;;4.90;99.90;;;;;;4988599;28;20031;-76
2022/11/12 00:24:06;;;;;;;0.03;0.03;;;4.90;99.90;;;;;;4992057;28;20033;-77
2022/11/12 00:26:31;;;;;;;0.00;0.00;;;4.80;99.90;;;;;;4991049;28;20414;-76
2022/11/12 00:28:57;;;;;;;0.00;0.00;;;4.50;99.90;;;;;;4990248;28;20035;-76
2022/11/12 00:31:24;;;;;;;0.00;0.00;;;4.80;99.90;;;;;;4989723;28;20034;-76
2022/11/12 00:33:51;;;;;;;0.00;0.00;;;4.70;99.90;;;;;;4989660;28;20054;-76
2022/11/12 00:36:17;;;;;;;0.00;0.00;;;4.70;99.90;;;;;;4991753;28;20023;-76
2022/11/12 00:38:45;;;;;;;0.10;0.10;;;4.70;99.90;;;;;;4991808;28;20030;-75
2022/11/12 00:41:11;;;;;;;0.10;0.10;;;4.60;99.90;;;;;;4992283;28;20058;-76
2022/11/12 00:43:37;;;;;;;0.30;0.30;;;4.50;99.90;;;;;;4988902;28;20023;-76
2022/11/12 00:46:08;;;;;;;0.00;0.00;;;4.50;99.90;;;;;;4990376;28;20505;-76
2022/11/12 00:48:33;;;;;;;2.75;2.63;;;4.40;99.90;;;;;;4993786;28;20109;-76
2022/11/12 01:07:27;;;;;;;0.10;0.10;;;4.20;99.90;;;;;;5239596;23;20046;-76
2022/11/12 01:11:15;;;;;;;0.08;0.08;;;3.90;99.90;;;;;;5006042;28;20069;-76
2022/11/12 01:18:23;;;;;;;0.00;0.00;;;4.20;99.90;;;;;;4923937;29;20577;-76
2022/11/12 01:20:48;;;;;;;0.10;0.10;;;3.40;99.90;;;;;;4932522;29;20127;-76
2022/11/12 01:23:14;;;;;;;0.10;0.10;;;4.10;99.90;;;;;;4931174;28;20032;-76
2022/11/12 01:25:40;;;;;;;0.00;0.00;;;4.20;99.90;;;;;;4948075;28;20044;-76
2022/11/12 01:28:08;;;;;;;0.03;0.03;;;4.10;99.90;;;;;;4932195;29;20132;-76
2022/11/12 01:30:34;;;;;;;0.10;0.10;;;4.10;99.90;;;;;;4932753;29;20016;-79
2022/11/12 01:33:00;;;;;;;0.10;0.10;;;4.00;99.90;;;;;;4932160;28;20028;-76
2022/11/12 01:35:25;;;;;;;0.10;0.10;;;4.00;99.90;;;;;;4934697;28;20028;-76
2022/11/12 01:37:54;;;;;;;0.10;0.10;;;4.00;99.90;;;;;;4932024;29;20035;-76
2022/11/12 01:40:26;;;;;;;0.10;0.10;;;4.00;99.90;;;;;;4933471;29;20278;-76
2022/11/12 01:42:58;;;;;;;1.75;1.65;;;4.00;99.90;;;;;;4930156;29;20039;-76
2022/11/12 01:45:48;;;;;;;0.10;0.10;;;4.00;99.90;;;;;;4929808;29;20302;-76
2022/11/12 01:48:26;;;;;;;0.00;0.00;;;4.00;99.90;;;;;;4929205;29;20067;-77
2022/11/12 01:50:52;;;;;;;0.57;0.55;;;4.00;99.90;;;;;;4933092;29;20020;-77
2022/11/12 01:53:20;;;;;;;0.10;0.10;;;4.00;99.90;;;;;;4930223;28;20036;-77
2022/11/12 01:55:45;;;;;;;0.10;0.10;;;4.00;99.90;;;;;;4929423;28;20008;-77
2022/11/12 01:58:24;;;;;;;0.00;0.00;;;3.90;99.90;;;;;;4932206;29;20031;-76
2022/11/12 02:00:51;;;;;;;0.10;0.10;;;4.00;99.90;;;;;;4926297;29;20036;-76
2022/11/12 02:03:22;;;;;;;0.10;0.10;;;3.90;99.90;;;;;;4930582;29;20080;-76
2022/11/12 02:05:57;;;;;;;0.10;0.10;;;2.80;99.90;;;;;;4930481;29;20024;-76
2022/11/12 02:08:25;;;;;;;0.10;0.10;;;4.00;99.90;;;;;;4929875;29;20029;-77
2022/11/12 02:10:50;;;;;;;0.10;0.10;;;4.00;99.90;;;;;;4930287;29;20127;-77
2022/11/12 02:16:07;;;;;;;0.20;0.20;;;4.00;99.90;;;;;;4948359;29;20116;-77
2022/11/12 02:18:35;;;;;;;1.40;1.40;;;3.90;99.90;;;;;;4959434;28;20053;-76
2022/11/12 02:21:07;;;;;;;0.00;0.00;;;3.90;99.90;;;;;;5003121;23;20061;-76
2022/11/12 02:23:36;;;;;;;0.10;0.10;;;3.80;99.90;;;;;;5002094;28;20113;-76
2022/11/12 02:26:03;;;;;;;5.72;5.38;;;3.80;99.90;;;;;;5024183;28;20102;-76
2022/11/12 02:28:30;;;;;;;0.17;0.17;;;3.80;99.90;;;;;;5022007;28;20024;-76
2022/11/12 02:30:56;;;;;;;0.20;0.20;;;3.70;99.90;;;;;;5025465;28;20455;-76
2022/11/12 02:33:22;;;;;;;0.10;0.10;;;3.70;99.90;;;;;;5134138;23;20065;-76
2022/11/12 02:35:47;;;;;;;0.10;0.10;;;3.70;99.90;;;;;;5026446;28;20030;-76
2022/11/12 02:38:13;;;;;;;0.15;0.15;;;3.80;99.90;;;;;;5025586;28;20025;-76
2022/11/12 02:40:41;;;;;;;0.10;0.10;;;3.80;99.90;;;;;;5026731;28;20069;-76
2022/11/12 02:43:07;;;;;;;0.08;0.08;;;3.80;99.90;;;;;;5025988;28;20064;-76
2022/11/12 02:45:32;;;;;;;0.10;0.10;;;3.70;99.90;;;;;;5023007;28;20033;-76
2022/11/12 02:47:58;;;;;;;0.10;0.10;;;3.70;99.90;;;;;;5007269;28;20014;-77
2022/11/12 02:50:24;;;;;;;0.00;0.00;;;0.90;99.90;;;;;;5026312;28;20034;-77
2022/11/12 02:53:10;;;;;;;0.10;0.10;;;3.80;99.90;;;;;;5025926;28;19998;-77
2022/11/12 02:55:37;;;;;;;0.10;0.10;;;3.80;99.90;;;;;;5008800;28;20101;-77
2022/11/12 02:58:02;;;;;;;0.20;0.20;;;3.80;99.90;;;;;;5009453;28;20022;-76
2022/11/12 03:00:31;;;;;;;0.00;0.00;;;3.90;99.90;;;;;;5008569;28;20543;-76
2022/11/12 03:03:00;;;;;;;0.10;0.10;;;3.90;99.90;;;;;;5052938;23;20468;-77
2022/11/12 03:05:30;;;;;;;0.30;0.30;;;4.00;99.90;;;;;;5007530;28;20010;-76
2022/11/12 03:08:02;;;;;;;0.10;0.10;;;4.00;99.90;;;;;;4989491;28;20048;-77
2022/11/12 03:10:29;;;;;;;5.60;5.28;;;4.00;99.90;;;;;;5006499;28;20707;-76
2022/11/12 03:13:16;;;;;;;0.10;0.10;;;4.10;99.90;;;;;;5007556;28;20102;-77
2022/11/12 03:15:43;;;;;;;0.10;0.10;;;4.00;99.90;;;;;;5008789;28;20046;-76
2022/11/12 03:18:13;;;;;;;0.20;0.20;;;4.20;99.90;;;;;;5007898;28;20023;-76
2022/11/12 03:20:40;;;;;;;0.00;0.00;;;4.20;99.90;;;;;;5009045;28;20053;-76
2022/11/12 03:23:08;;;;;;;0.00;0.00;;;4.20;99.90;;;;;;5013381;28;20082;-77
2022/11/12 03:25:35;;;;;;;0.10;0.10;;;4.20;99.90;;;;;;5013134;28;20528;-76
2022/11/12 03:28:17;;;;;;;0.03;0.03;;;4.20;99.90;;;;;;5011080;28;20034;-76
2022/11/12 03:30:44;;;;;;;0.20;0.20;;;4.20;99.90;;;;;;5010801;28;20094;-76
2022/11/12 03:33:12;;;;;;;0.00;0.00;;;4.20;99.90;;;;;;5012886;28;20018;-76
2022/11/12 03:35:38;;;;;;;0.08;0.08;;;4.30;99.90;;;;;;4993333;28;20026;-77
2022/11/12 03:38:05;;;;;;;0.00;0.00;;;4.40;99.90;;;;;;5011562;28;20039;-76
2022/11/12 03:40:33;;;;;;;0.10;0.10;;;4.40;99.90;;;;;;5011372;28;20075;-76
2022/11/12 03:42:59;;;;;;;0.10;0.10;;;4.50;99.90;;;;;;4994845;28;20080;-77
2022/11/12 03:45:26;;;;;;;0.00;0.00;;;4.50;99.90;;;;;;5012341;28;20058;-77
2022/11/12 03:47:54;;;;;;;0.00;0.00;;;4.40;99.90;;;;;;5013357;28;20026;-76
2022/11/12 03:50:26;;;;;;;0.00;0.00;;;4.50;99.90;;;;;;4995602;28;20030;-76
2022/11/12 03:52:54;;;;;;;0.10;0.10;;;4.50;99.90;;;;;;4995547;28;20003;-78
2022/11/12 03:55:22;;;;;;;0.10;0.10;;;4.50;99.90;;;;;;5013234;28;20026;-76
2022/11/12 03:57:49;;;;;;;0.20;0.20;;;4.50;99.90;;;;;;5008741;28;20046;-77
2022/11/12 04:00:15;;;;;;;0.10;0.10;;;4.50;99.90;;;;;;4993045;28;20026;-76
2022/11/12 04:02:41;;;;;;;22.77;10.73;;;5.30;99.90;;;;;;5009128;28;20055;-77
2022/11/12 04:10:51;;;;;;;0.00;0.00;;;4.50;99.90;;;;;;4985756;28;20479;-77
2022/11/12 04:13:29;;;;;;;0.10;0.10;;;4.60;99.90;;;;;;4967788;28;20041;-77
2022/11/12 04:21:54;;;;;;;0.00;0.00;;;4.90;99.90;;;;;;4993009;28;20044;-77
2022/11/12 04:27:28;;;;;;;0.00;0.00;;;4.90;99.90;;;;;;4992503;28;20052;-76
2022/11/12 04:32:45;;;;;;;0.00;0.00;;;5.10;99.90;;;;;;4990401;28;20109;-76
2022/11/12 04:35:12;;;;;;;0.05;0.05;;;5.10;99.90;;;;;;4998895;28;20102;-76
2022/11/12 04:37:55;;;;;;;0.10;0.10;;;5.10;99.90;;;;;;4990461;28;20003;-76
2022/11/12 04:46:05;;;;;;;0.00;0.00;;;5.20;99.90;;;;;;5007610;28;20535;-76
2022/11/12 04:48:31;;;;;;;0.10;0.10;;;5.20;99.90;;;;;;4990322;28;20026;-76
2022/11/12 04:53:55;;;;;;;0.00;0.00;;;5.10;99.90;;;;;;4970201;29;20027;-77
2022/11/12 04:56:21;;;;;;;0.00;0.00;;;5.20;99.90;;;;;;4969165;29;20038;-76
2022/11/12 04:58:47;;;;;;;0.00;0.00;;;5.30;99.90;;;;;;4970050;29;20039;-76
2022/11/12 05:01:13;;;;;;;0.10;0.10;;;5.30;99.90;;;;;;4966919;29;20062;-76
2022/11/12 05:03:38;;;;;;;0.00;0.00;;;5.40;99.90;;;;;;4968538;29;20063;-77
2022/11/12 05:09:01;;;;;;;0.00;0.00;;;7.10;99.90;;;;;;4943481;29;20058;-78
2022/11/12 05:20:03;;;;;;;0.03;0.03;;;5.50;99.90;;;;;;5818928;23;20050;-79
2022/11/12 05:22:58;;;;;;;0.00;0.00;;;5.40;99.90;;;;;;4993905;28;20022;-79
2022/11/12 05:25:39;;;;;;;0.05;0.05;;;5.50;99.90;;;;;;4947037;28;20073;-77
2022/11/12 05:28:05;;;;;;;40.00;36.58;;;;;;;;;;4930800;29;20093;-76
2022/11/12 05:30:30;;;;;;;0.00;0.00;;;5.60;99.90;;;;;;4948834;29;20546;-76
2022/11/12 05:32:56;;;;;;;0.05;0.05;;;5.60;99.90;;;;;;4928450;29;20036;-77
2022/11/12 05:35:22;;;;;;;0.00;0.00;;;5.60;99.90;;;;;;4930920;28;20044;-77
2022/11/12 05:38:02;;;;;;;0.00;0.00;;;4.70;99.90;;;;;;4945901;29;20012;-77
2022/11/12 05:40:29;;;;;;;0.00;0.00;;;;;;;;;;4947579;29;20221;-77
2022/11/12 05:42:55;;;;;;;0.10;0.10;;;5.60;99.90;;;;;;4930213;29;20499;-77
2022/11/12 05:45:21;;;;;;;0.00;0.00;;;5.60;99.90;;;;;;4945665;28;20039;-77
2022/11/12 05:47:47;;;;;;;0.25;0.25;;;5.60;99.90;;;;;;4946606;29;20107;-76
2022/11/12 05:50:13;;;;;;;0.00;0.00;;;5.60;99.90;;;;;;4945652;29;20036;-77
2022/11/12 05:52:39;;;;;;;0.10;0.10;;;5.60;99.90;;;;;;4948203;28;20038;-77
2022/11/12 05:55:16;;;;;;;1.60;1.60;;;5.60;99.90;;;;;;4950752;28;20043;-77
2022/11/12 05:57:42;;;;;;;0.00;0.00;;;5.70;99.90;;;;;;4940873;29;20040;-77
2022/11/12 06:00:09;;;;;;;0.10;0.10;;;5.60;99.90;;;;;;4929208;29;20047;-77
2022/11/12 06:02:34;;;;;;;0.00;0.00;;;5.50;99.90;;;;;;4984073;28;20056;-76
2022/11/12 06:05:01;;;;;;;0.10;0.10;;;5.50;99.90;;;;;;5015155;28;20087;-76
2022/11/12 06:07:26;;;;;;;0.10;0.10;;;5.50;99.90;;;;;;5010130;28;20057;-76
2022/11/12 06:09:53;;;;;;;0.00;0.00;;;5.50;99.90;;;;;;5011031;28;20022;-76
2022/11/12 06:12:42;;;;;;;0.03;0.03;;;5.50;99.90;;;;;;5008012;28;20031;-77
2022/11/12 06:15:08;;;;;;;0.10;0.10;;;5.50;99.90;;;;;;5012323;28;20038;-77
2022/11/12 06:17:34;;;;;;;0.10;0.10;;;5.30;99.90;;;;;;5010568;28;20025;-76
2022/11/12 06:20:00;;;;;;;6.13;4.93;;;5.40;99.90;;;;;;5008725;28;20050;-76
2022/11/12 06:22:26;;;;;;;0.00;0.00;;;5.50;99.90;;;;;;5008324;28;20054;-77
2022/11/12 06:25:08;;;;;;;0.10;0.10;;;5.50;99.90;;;;;;5005484;28;20268;-77
2022/11/12 06:27:40;;;;;;;0.00;0.00;;;5.60;99.90;;;;;;5007674;28;20026;-77
2022/11/12 06:30:09;;;;;;;0.00;0.00;;;5.60;99.90;;;;;;4996881;28;20038;-77
2022/11/12 06:32:37;;;;;;;0.00;0.00;;;5.60;99.90;;;;;;5007685;28;20019;-76
2022/11/12 06:35:03;;;;;;;0.00;0.00;;;5.70;99.90;;;;;;5010025;28;20034;-77
2022/11/12 06:37:28;;;;;;;0.10;0.10;;;5.70;99.90;;;;;;5009096;28;20252;-77
2022/11/12 06:39:54;;;;;;;0.00;0.00;;;5.70;99.90;;;;;;5008099;28;20019;-76
2022/11/12 06:42:20;;;;;;;0.00;0.00;;;5.60;99.90;;;;;;5004065;28;20050;-77
2022/11/12 06:44:46;;;;;;;0.10;0.10;;;5.70;99.90;;;;;;5006509;28;20030;-77
2022/11/12 06:47:11;;;;;;;0.00;0.00;;;5.70;99.90;;;;;;5004027;28;20030;-77
2022/11/12 06:49:40;;;;;;;0.10;0.10;;;5.70;99.90;;;;;;5003721;28;20199;-77
2022/11/12 06:52:06;;;;;;;0.00;0.00;;;5.80;99.90;;;;;;5003993;28;20026;-77
2022/11/12 06:54:34;;;;;;;0.00;0.00;;;5.80;99.90;;;;;;5003195;28;20061;-77
2022/11/12 06:57:00;;;;;;;0.00;0.00;;;5.90;99.90;;;;;;5005174;28;20466;-77
2022/11/12 06:59:26;;;;;;;0.00;0.00;;;5.90;99.90;;;;;;5004988;28;20037;-78
2022/11/12 07:02:01;;;;;;;0.10;0.10;;;6.00;99.90;;;;;;5002319;28;20033;-77
2022/11/12 07:04:28;;;;;;;0.00;0.00;;;6.10;99.90;;;;;;4987916;28;20049;-77
2022/11/12 07:06:54;;;;;;;0.10;0.10;;;6.20;99.90;;;;;;5006844;28;20027;-76
2022/11/12 07:09:20;;;;;;;0.00;0.00;;;6.30;99.90;;;;;;5008592;28;20035;-77
2022/11/12 07:11:46;;;;;;;0.93;0.93;;;6.40;99.90;;;;;;5005742;28;20014;-78
2022/11/12 07:14:13;;;;;;;0.05;0.05;;;6.50;99.90;;;;;;5005508;28;20030;-78
2022/11/12 07:16:39;;;;;;;5.97;5.78;;;6.70;99.90;;;;;;5005966;28;20057;-76
2022/11/12 07:19:05;;;;;;;7.07;6.43;;;6.80;99.90;;;;;;5009533;28;20026;-76
2022/11/12 07:21:30;;;;;;;0.10;0.10;;;6.80;99.90;;;;;;5005680;28;20058;-76
2022/11/12 07:23:58;;;;;;;16.63;7.78;;;6.90;99.90;;;;;;5008410;28;20003;-76
2022/11/12 07:26:28;;;;;;;3.38;3.15;;;7.00;99.90;;;;;;5010151;28;20041;-76
2022/11/12 07:28:55;;;;;;;0.08;0.08;;;7.10;99.90;;;;;;5006446;28;20050;-76
2022/11/12 07:31:22;;;;;;;0.10;0.10;;;7.10;99.90;;;;;;5009394;28;20070;-76
2022/11/12 07:33:49;;;;;;;0.03;0.03;;;7.20;99.90;;;;;;5009341;28;20595;-76
2022/11/12 07:36:17;;;;;;;0.55;0.55;;;7.30;99.90;;;;;;5009622;23;20077;-76
2022/11/12 07:38:43;;;;;;;0.10;0.10;;;7.30;99.90;;;;;;5000640;28;20031;-76
2022/11/12 07:41:17;;;;;;;0.00;0.00;;;7.50;99.90;;;;;;4996809;28;20081;-76
2022/11/12 07:43:44;;;;;;;;;;;7.50;99.90;;;;;;4997656;28;20088;-77
2022/11/12 07:46:21;;;;;;;0.10;0.10;;;7.50;99.90;;;;;;4998367;28;19913;-78
2022/11/12 07:48:52;;;;;;;0.10;0.10;;;7.60;99.90;;;;;;4998488;28;20029;-77
2022/11/12 07:54:43;;;;;;;0.10;0.10;;;7.90;99.90;;;;;;5004721;28;20057;-78
2022/11/12 07:57:15;;;;;;;0.57;0.57;;;7.70;99.90;;;;;;5096557;23;20058;-78
2022/11/12 08:00:02;;;;;;;0.10;0.10;;;7.70;99.90;;;;;;5004817;23;20058;-78
2022/11/12 08:02:50;;;;;;;0.10;0.10;;;7.70;99.90;;;;;;4979778;28;20086;-78
2022/11/12 08:05:28;;;;;;;0.30;0.30;;;8.50;99.90;;;;;;4992635;28;20102;-78
2022/11/12 08:11:13;;;;;;;0.43;0.43;;;7.60;99.90;;;;;;4961486;28;20054;-77
2022/11/12 08:13:51;;;;;;;0.50;0.50;;;7.80;99.90;;;;;;5011805;28;20034;-77
2022/11/12 08:16:35;;;;;;;0.10;0.10;;;8.00;99.90;;;;;;4987287;28;20674;-78
2022/11/12 08:31:01;;;;;;;0.10;0.10;;;9.30;99.90;;;;;;5040445;23;20061;-76
2022/11/12 08:38:58;;;;;;;4.82;4.57;;;8.70;99.90;;;;;;5192496;23;20535;-76
2022/11/12 08:44:50;;;;;;;0.10;0.10;;;8.70;99.90;;;;;;5028543;28;20082;-76
2022/11/12 08:47:22;;;;;;;0.10;0.10;;;9.00;99.90;;;;;;5026435;28;20026;-79
2022/11/12 08:50:25;;;;;;;0.10;0.10;;;9.10;99.90;;;;;;5317150;23;20039;-77
2022/11/12 09:05:56;;;;;;;0.17;0.17;;;;;;;;;;3265255;26;20077;-76
2022/11/12 09:08:52;;;;;;;0.10;0.10;;;9.30;99.90;;;;;;5028824;28;20090;-77
2022/11/12 09:11:36;;;;;;;1.10;1.10;;;9.40;99.90;;;;;;5013746;28;20033;-79
2022/11/12 09:14:02;;;;;;;0.20;0.20;;;9.50;99.90;;;;;;5032334;28;20029;-77
2022/11/12 09:16:30;;;;;;;0.20;0.20;;;9.60;99.90;;;;;;5029865;28;20017;-78
2022/11/12 09:18:55;;;;;;;0.32;0.32;;;9.80;99.90;;;;;;5028127;28;20022;-79
2022/11/12 09:21:23;;;;;;;1.10;1.10;;;9.80;99.90;;;;;;5027758;28;20002;-76
2022/11/12 09:24:17;;;;;;;0.17;0.17;;;9.90;99.90;;;;;;4934595;29;20056;-76
2022/11/12 09:27:05;;;;;;;0.20;0.20;;;9.90;99.90;;;;;;4930487;29;20037;-77
2022/11/12 09:29:32;;;;;;;1.92;1.85;;;10.40;99.90;;;;;;4929188;29;20022;-78
2022/11/12 09:32:04;;;;;;;1.95;1.85;;;10.50;99.90;;;;;;4933972;29;20042;-77
2022/11/12 09:34:42;;;;;;;0.43;0.43;;;10.70;99.90;;;;;;4933340;29;20179;-76
2022/11/12 09:37:19;;;;;;;0.17;0.17;;;10.70;99.90;;;;;;4917337;29;20123;-77
2022/11/12 09:39:45;;;;;;;0.20;0.20;;;10.80;99.90;;;;;;4935431;29;20063;-77
2022/11/12 09:42:38;;;;;;;0.20;0.20;;;11.00;99.90;;;;;;4921597;29;20103;-80
2022/11/12 09:45:32;;;;;;;0.20;0.20;;;11.10;99.90;;;;;;4931126;29;20043;-79
2022/11/12 09:48:18;;;;;;;0.20;0.20;;;11.20;99.90;;;;;;4892037;29;20095;-79
2022/11/12 09:51:26;;;;;;;0.20;0.20;;;11.30;99.90;;;;;;4927139;29;20017;-78
2022/11/12 09:53:59;;;;;;;0.63;0.63;;;11.70;99.90;;;;;;4856664;29;20071;-84
2022/11/12 09:56:28;;;;;;;0.95;0.95;;;12.00;99.90;;;;;;4836918;29;20134;-82
2022/11/12 09:58:59;;;;;;;0.20;0.20;;;12.30;99.90;;;;;;4847190;29;20030;-76
2022/11/12 10:01:40;;;;;;;4.05;3.85;;;12.40;99.90;;;;;;4878652;29;20183;-88
2022/11/12 10:04:39;;;;;;;0.25;0.25;;;12.50;99.90;;;;;;4906362;29;20084;-88
2022/11/12 10:07:11;;;;;;;7.32;6.85;;;12.40;99.90;;;;;;4905225;29;20139;-83
2022/11/12 10:10:11;;;;;;;0.20;0.20;;;12.30;99.90;;;;;;4905310;29;20036;-79
2022/11/12 10:13:01;;;;;;;0.20;0.20;;;11.80;99.90;;;;;;4896668;29;20044;-78
2022/11/12 10:19:55;;;;;;;2.65;2.55;;;11.60;99.90;;;;;;4937203;29;20031;-79
2022/11/12 10:22:27;;;;;;;0.20;0.20;;;11.60;99.90;;;;;;4884652;29;20025;-79
2022/11/12 10:24:54;;;;;;;4.32;4.13;;;11.80;99.90;;;;;;4901113;29;20036;-76
2022/11/12 10:27:34;;;;;;;2.05;1.95;;;11.90;99.90;;;;;;4901141;29;20044;-76
2022/11/12 10:30:14;;;;;;;0.20;0.20;;;11.80;99.90;;;;;;4916173;29;20043;-78
2022/11/12 10:32:45;;;;;;;0.28;0.28;;;11.90;99.90;;;;;;4946313;29;20020;-77
2022/11/12 10:35:18;;;;;;;0.20;0.20;;;12.10;99.90;;;;;;4974534;23;20046;-80
2022/11/12 10:38:15;;;;;;;0.20;0.20;;;12.20;99.90;;;;;;4991800;28;20038;-80
2022/11/12 10:40:44;;;;;;;13.50;6.03;;;12.20;99.90;;;;;;5170522;23;20598;-80
2022/11/12 10:43:15;;;;;;;1.20;1.20;;;12.30;99.90;;;;;;4997257;28;20034;-87
2022/11/12 10:45:47;;;;;;;1.38;1.38;;;12.10;99.90;;;;;;4998172;28;19998;-91
2022/11/12 10:48:23;;;;;;;1.42;1.42;;;12.00;99.90;;;;;;5026584;23;20066;-89
2022/11/12 10:50:49;;;;;;;0.63;0.63;;;12.00;99.90;;;;;;4998565;28;20018;-83
2022/11/12 10:53:37;;;;;;;0.55;0.55;;;11.90;99.90;;;;;;5004833;28;20083;-78
2022/11/12 10:56:34;;;;;;;2.00;1.75;;;11.70;99.90;;;;;;5018546;23;20062;-90
2022/11/12 10:59:41;;;;;;;1.33;1.33;;;13.10;99.90;;;;;;5011405;28;20037;-78
2022/11/12 11:07:30;;;;;;;2.05;1.95;;;11.80;99.90;;;;;;5218770;23;20042;-77
2022/11/12 11:10:43;;;;;;;0.20;0.20;;;11.90;99.90;;;;;;5096300;23;20116;-77
2022/11/12 11:13:38;;;;;;;5.63;5.18;;;12.80;99.90;;;;;;5040843;23;20118;-76
2022/11/12 11:16:20;;;;;;;7.00;6.43;;;12.00;99.90;;;;;;5055646;23;20142;-77
2022/11/12 11:19:19;;;;;;;0.30;0.30;;;12.80;99.90;;;;;;5002131;28;20035;-91
2022/11/12 11:22:11;;;;;;;3.60;3.35;;;13.80;99.90;;;;;;5009764;23;20038;-80
2022/11/12 11:27:55;;;;;;;7.05;6.72;;;13.70;99.90;;;;;;5015262;23;20033;-78
2022/11/12 11:30:53;;;;;;;2.83;2.72;;;14.00;99.90;;;;;;5011249;28;20058;-78
2022/11/12 11:34:09;;;;;;;0.20;0.20;;;15.00;99.90;;;;;;4983376;23;20045;-86
2022/11/12 11:37:09;;;;;;;0.40;0.40;;;13.30;99.90;;;;;;4988117;23;20477;-93
2022/11/12 11:42:48;;;;;;;0.90;0.90;;;14.00;99.90;;;;;;5033774;23;20037;-85
2022/11/12 11:45:38;;;;;;;6.50;3.40;;;11.70;99.90;;;;;;5033098;28;20010;-87
2022/11/12 11:48:41;;;;;;;5.53;4.97;;;14.60;99.90;;;;;;4974845;28;20096;-78
2022/11/12 11:51:07;;;;;;;2.63;2.53;;;14.00;99.90;;;;;;5004984;28;20037;-78
2022/11/12 11:54:31;;;;;;;3.45;3.30;;;15.40;99.90;;;;;;4985213;23;20061;-77
2022/11/12 11:57:02;;;;;;;1.70;1.60;;;13.50;99.90;;;;;;4905575;29;20056;-78
2022/11/12 12:00:07;;;;;;;0.40;0.40;;;13.60;99.90;;;;;;4909790;29;20036;-77
2022/11/12 12:02:53;;;;;;;0.80;0.80;;;13.40;99.90;;;;;;4901752;29;20119;-86
2022/11/12 12:05:40;;;;;;;2.03;1.92;;;13.50;99.90;;;;;;4914180;29;20032;-85
2022/11/12 12:08:08;;;;;;;0.35;0.35;;;13.20;99.90;;;;;;4918407;29;20088;-82
2022/11/12 12:10:45;;;;;;;2.05;1.92;;;13.20;99.90;;;;;;4910142;29;20021;-87
2022/11/12 12:13:54;;;;;;;3.35;3.15;;;13.10;99.90;;;;;;4925948;29;20031;-80
2022/11/12 12:17:01;;;;;;;0.38;0.38;;;13.10;99.90;;;;;;4908586;29;20258;-76
2022/11/12 12:32:15;;;;;;;3.15;2.95;;;15.00;99.90;;;;;;5551943;23;20068;-91
2022/11/12 12:34:47;;;;;;;1.25;1.23;;;13.70;99.90;;;;;;5011950;28;20025;-85
2022/11/12 12:37:16;;;;;;;3.17;2.28;;;14.10;99.90;;;;;;5007781;28;20018;-88
2022/11/12 12:40:04;;;;;;;2.90;2.70;;;14.40;99.90;;;;;;5012963;28;20026;-86
2022/11/12 12:42:45;;;;;;;0.65;0.63;;;14.60;99.90;;;;;;4997830;28;20069;-85
2022/11/12 12:45:40;;;;;;;0.80;0.80;;;14.40;99.90;;;;;;5016517;28;20017;-82
2022/11/12 12:48:31;;;;;;;0.57;0.55;;;14.40;99.90;;;;;;4987927;28;20554;-78
2022/11/12 12:50:57;;;;;;;0.20;0.20;;;14.30;99.90;;;;;;5002989;28;20036;-79
2022/11/12 12:53:28;;;;;;;0.65;0.65;;;14.20;99.90;;;;;;5001385;28;20223;-78
2022/11/12 12:56:00;;;;;;;0.20;0.20;;;14.10;99.90;;;;;;5000809;28;20021;-78
2022/11/12 12:58:35;;;;;;;0.20;0.20;;;14.00;99.90;;;;;;4983330;28;20076;-77
2022/11/12 13:01:20;;;;;;;6.93;2.13;;;13.80;99.90;;;;;;5000795;28;20539;-80
2022/11/12 13:04:02;;;;;;;1.80;1.73;;;13.50;99.90;;;;;;5009000;28;20022;-77
2022/11/12 13:06:39;;;;;;;5.70;4.60;;;13.20;99.90;;;;;;5005235;28;20044;-76
2022/11/12 13:09:11;;;;;;;1.48;1.48;;;13.00;99.90;;;;;;5015553;28;20065;-90
2022/11/12 13:14:33;;;;;;;0.20;0.20;;;12.90;99.90;;;;;;5013318;28;20088;-91
2022/11/12 13:17:45;;;;;;;1.15;1.13;;;12.80;99.90;;;;;;5017148;28;20173;-85
2022/11/12 13:20:13;;;;;;;0.90;0.90;;;12.70;99.90;;;;;;5009316;28;20034;-91
2022/11/12 13:22:58;;;;;;;1.95;1.85;;;12.60;99.90;;;;;;5032575;28;20026;-74
2022/11/12 13:25:39;;;;;;;0.10;0.10;;;12.60;99.90;;;;;;5025891;28;19998;-86
2022/11/12 13:28:07;;;;;;;0.25;0.25;;;13.50;99.90;;;;;;5006669;28;20036;-78
2022/11/12 13:30:33;;;;;;;0.30;0.30;;;12.60;99.90;;;;;;5007436;28;20025;-89
2022/11/12 13:33:01;;;;;;;0.93;0.88;;;12.70;99.90;;;;;;5004147;28;20048;-83
2022/11/12 13:35:33;;;;;;;1.17;1.17;;;12.80;99.90;;;;;;4986124;28;20121;-81
2022/11/12 13:38:10;;;;;;;8.00;7.22;;;12.90;99.90;;;;;;4987475;28;20029;-84
2022/11/12 13:40:49;;;;;;;0.40;0.40;;;12.90;99.90;;;;;;4986306;28;20231;-77
2022/11/12 13:43:26;;;;;;;1.77;1.67;;;12.80;99.90;;;;;;5011174;28;20041;-78
2022/11/12 13:45:57;;;;;;;0.20;0.20;;;10.60;99.90;;;;;;4997177;28;20109;-77
2022/11/12 13:48:28;;;;;;;0.20;0.20;;;12.70;99.90;;;;;;4997759;28;20033;-78
2022/11/12 13:51:15;;;;;;;0.30;0.30;;;12.70;99.90;;;;;;4997638;28;20072;-82
2022/11/12 13:53:45;;;;;;;0.30;0.30;;;12.60;99.90;;;;;;5021395;28;20110;-82
2022/11/12 13:56:12;;;;;;;1.27;1.27;;;12.90;99.90;;;;;;5020283;28;20056;-86
2022/11/12 13:58:38;;;;;;;2.35;2.25;;;12.50;99.90;;;;;;5016773;28;20083;-81
2022/11/12 14:01:06;;;;;;;3.60;3.40;;;12.40;99.90;;;;;;5015939;28;20034;-92
2022/11/12 14:03:46;;;;;;;0.20;0.20;;;12.40;99.90;;;;;;5003741;28;20026;-80
2022/11/12 14:06:31;;;;;;;0.30;0.30;;;12.30;99.90;;;;;;5002798;28;20022;-77
2022/11/12 14:09:31;;;;;;;0.10;0.10;;;12.20;99.90;;;;;;5001382;28;20029;-81
2022/11/12 14:12:34;;;;;;;0.15;0.15;;;12.10;99.90;;;;;;5001726;28;20033;-78
2022/11/12 14:15:36;;;;;;;1.40;1.38;;;12.10;99.90;;;;;;5004948;28;20033;-77
2022/11/12 14:18:35;;;;;;;0.20;0.20;;;12.00;99.90;;;;;;4929550;29;20036;-91
2022/11/12 14:21:05;;;;;;;0.20;0.20;;;11.90;99.90;;;;;;4930961;29;20036;-90
2022/11/12 14:23:37;;;;;;;0.13;0.13;;;11.90;99.90;;;;;;4910977;29;20020;-80
2022/11/12 14:26:03;;;;;;;1.13;1.13;;;11.90;99.90;;;;;;4946676;23;20050;-78
2022/11/12 14:28:39;;;;;;;0.30;0.30;;;11.90;99.90;;;;;;4969314;28;20046;-77
2022/11/12 14:31:13;;;;;;;0.20;0.20;;;11.80;99.90;;;;;;4967280;28;20050;-78
2022/11/12 14:33:39;;;;;;;;;;;11.80;99.90;;;;;;4985540;28;20098;-79
2022/11/12 14:36:15;;;;;;;11.13;8.05;;;13.80;99.90;;;;;;4985712;28;19931;-89
2022/11/12 14:38:54;;;;;;;0.10;0.10;;;11.90;99.90;;;;;;4967941;28;20694;-80
2022/11/12 14:41:34;;;;;;;0.17;0.17;;;11.90;99.90;;;;;;4985195;28;20015;-78
2022/11/12 14:44:06;;;;;;;0.10;0.10;;;11.80;99.90;;;;;;4992555;28;20014;-82
2022/11/12 14:46:44;;;;;;;0.10;0.10;;;11.70;99.90;;;;;;4999885;28;20027;-79
2022/11/12 14:50:00;;;;;;;0.20;0.20;;;11.70;99.80;;;;;;4999877;28;20089;-78
2022/11/12 14:52:51;;;;;;;0.17;0.17;;;12.00;99.90;;;;;;5004473;28;20023;-77
2022/11/12 14:55:38;;;;;;;11.40;5.18;;;11.60;99.90;;;;;;5002873;28;20034;-77
2022/11/12 14:58:28;;;;;;;0.20;0.20;;;11.60;99.90;;;;;;4988702;28;20023;-76
2022/11/12 15:00:57;;;;;;;0.20;0.20;;;11.60;99.90;;;;;;5006390;28;20022;-77
2022/11/12 15:03:30;;;;;;;32.33;23.77;;;11.60;99.90;;;;;;5001505;28;20022;-78
2022/11/12 15:06:22;;;;;;;0.20;0.20;;;11.60;99.90;;;;;;5000458;28;20010;-82
2022/11/12 15:08:57;;;;;;;0.15;0.15;;;11.60;99.90;;;;;;4911915;29;20044;-77
2022/11/12 15:14:23;;;;;;;0.20;0.20;;;11.50;99.90;;;;;;5021237;28;20072;-79
2022/11/12 15:16:50;;;;;;;1.27;1.27;;;11.40;99.90;;;;;;5023974;28;20021;-77
2022/11/12 15:19:21;;;;;;;0.20;0.20;;;11.00;99.90;;;;;;5003899;28;20029;-77
2022/11/12 15:22:03;;;;;;;0.30;0.30;;;11.40;99.90;;;;;;5006408;28;20017;-77
2022/11/12 15:24:37;;;;;;;0.13;0.13;;;11.30;99.90;;;;;;5011037;28;20558;-77
2022/11/12 15:27:49;;;;;;;0.20;0.20;;;9.70;99.90;;;;;;4989365;28;20037;-77
2022/11/12 15:30:25;;;;;;;1.30;1.23;;;11.20;99.90;;;;;;5013073;28;20086;-78
2022/11/12 15:36:55;;;;;;;0.15;0.15;;;9.60;99.90;;;;;;5014851;23;20053;-77
2022/11/12 15:39:48;;;;;;;0.20;0.20;;;11.80;99.90;;;;;;5008051;28;20018;-76
2022/11/12 15:42:28;;;;;;;0.73;0.73;;;9.70;99.90;;;;;;5010730;28;20523;-75
2022/11/12 15:45:36;;;;;;;0.10;0.10;;;10.80;99.90;;;;;;5082570;23;20081;-77
2022/11/12 16:04:22;;;;;;;1.10;1.10;;;10.80;99.90;;;;;;5154397;23;20080;-79
2022/11/12 16:07:19;;;;;;;0.20;0.20;;;10.70;99.90;;;;;;5029671;28;20033;-78
2022/11/12 16:10:11;;;;;;;1.15;1.15;;;10.70;99.90;;;;;;5026454;28;20018;-76